sensor_id;sensor_type;location;lat;lon;timestamp;pressure;altitude;pressure_sealevel;temperature
78961;BMP280;68362;45.970;12.646;2023-05-07T00:00:44;101240.56;;;16.78
78961;BMP280;68362;45.970;12.646;2023-05-07T00:01:56;101239.97;;;16.71
78961;BMP280;68362;45.970;12.646;2023-05-07T00:02:58;101244.38;;;16.44
78961;BMP280;68362;45.970;12.646;2023-05-07T00:04:01;101243.28;;;16.61
78961;BMP280;68362;45.970;12.646;2023-05-07T00:05:04;101250.56;;;16.71
78961;BMP280;68362;45.970;12.646;2023-05-07T00:06:06;101243.28;;;16.83
78961;BMP280;68362;45.970;12.646;2023-05-07T00:07:09;101239.31;;;16.86
78961;BMP280;68362;45.970;12.646;2023-05-07T00:08:11;101248.06;;;16.86
78961;BMP280;68362;45.970;12.646;2023-05-07T00:09:13;101243.63;;;16.70
78961;BMP280;68362;45.970;12.646;2023-05-07T00:10:15;101246.94;;;16.82
78961;BMP280;68362;45.970;12.646;2023-05-07T00:11:17;101245.50;;;16.91
78961;BMP280;68362;45.970;12.646;2023-05-07T00:12:19;101246.00;;;16.88
78961;BMP280;68362;45.970;12.646;2023-05-07T00:13:21;101245.16;;;16.88
78961;BMP280;68362;45.970;12.646;2023-05-07T00:14:23;101248.38;;;16.90
78961;BMP280;68362;45.970;12.646;2023-05-07T00:15:26;101247.38;;;16.96
78961;BMP280;68362;45.970;12.646;2023-05-07T00:16:28;101241.28;;;16.96
78961;BMP280;68362;45.970;12.646;2023-05-07T00:17:30;101244.69;;;16.69
78961;BMP280;68362;45.970;12.646;2023-05-07T00:18:32;101240.19;;;16.48
78961;BMP280;68362;45.970;12.646;2023-05-07T00:19:34;101240.03;;;16.38
78961;BMP280;68362;45.970;12.646;2023-05-07T00:20:36;101246.00;;;16.28
78961;BMP280;68362;45.970;12.646;2023-05-07T00:21:38;101241.88;;;16.54
78961;BMP280;68362;45.970;12.646;2023-05-07T00:22:40;101236.28;;;16.55
78961;BMP280;68362;45.970;12.646;2023-05-07T00:23:43;101237.78;;;16.68
78961;BMP280;68362;45.970;12.646;2023-05-07T00:24:44;101240.94;;;16.65
78961;BMP280;68362;45.970;12.646;2023-05-07T00:25:47;101234.66;;;16.71
78961;BMP280;68362;45.970;12.646;2023-05-07T00:26:49;101232.66;;;16.83
78961;BMP280;68362;45.970;12.646;2023-05-07T00:27:51;101238.56;;;16.90
78961;BMP280;68362;45.970;12.646;2023-05-07T00:28:53;101229.50;;;16.86
78961;BMP280;68362;45.970;12.646;2023-05-07T00:29:55;101237.56;;;16.97
78961;BMP280;68362;45.970;12.646;2023-05-07T00:30:57;101231.28;;;17.03
78961;BMP280;68362;45.970;12.646;2023-05-07T00:31:59;101230.50;;;17.07
78961;BMP280;68362;45.970;12.646;2023-05-07T00:33:01;101233.41;;;17.06
78961;BMP280;68362;45.970;12.646;2023-05-07T00:34:04;101233.97;;;17.08
78961;BMP280;68362;45.970;12.646;2023-05-07T00:35:06;101228.31;;;16.99
78961;BMP280;68362;45.970;12.646;2023-05-07T00:36:09;101233.69;;;17.04
78961;BMP280;68362;45.970;12.646;2023-05-07T00:37:11;101232.22;;;16.70
78961;BMP280;68362;45.970;12.646;2023-05-07T00:38:14;101225.44;;;16.35
78961;BMP280;68362;45.970;12.646;2023-05-07T00:39:15;101228.56;;;16.49
78961;BMP280;68362;45.970;12.646;2023-05-07T00:40:18;101229.78;;;16.41
78961;BMP280;68362;45.970;12.646;2023-05-07T00:41:20;101229.97;;;16.56
78961;BMP280;68362;45.970;12.646;2023-05-07T00:42:22;101231.13;;;16.66
78961;BMP280;68362;45.970;12.646;2023-05-07T00:43:24;101231.81;;;16.78
78961;BMP280;68362;45.970;12.646;2023-05-07T00:44:26;101223.03;;;16.77
78961;BMP280;68362;45.970;12.646;2023-05-07T00:45:30;101231.56;;;16.79
78961;BMP280;68362;45.970;12.646;2023-05-07T00:46:32;101231.81;;;16.78
78961;BMP280;68362;45.970;12.646;2023-05-07T00:47:34;101229.38;;;16.71
78961;BMP280;68362;45.970;12.646;2023-05-07T00:48:37;101228.78;;;16.69
78961;BMP280;68362;45.970;12.646;2023-05-07T00:49:41;101238.44;;;16.53
78961;BMP280;68362;45.970;12.646;2023-05-07T00:50:44;101236.22;;;16.28
78961;BMP280;68362;45.970;12.646;2023-05-07T00:51:47;101231.94;;;16.44
78961;BMP280;68362;45.970;12.646;2023-05-07T00:52:49;101232.84;;;16.55
78961;BMP280;68362;45.970;12.646;2023-05-07T00:53:51;101226.50;;;16.56
78961;BMP280;68362;45.970;12.646;2023-05-07T00:54:53;101226.81;;;16.59
78961;BMP280;68362;45.970;12.646;2023-05-07T00:55:56;101228.31;;;16.50
78961;BMP280;68362;45.970;12.646;2023-05-07T00:56:59;101226.13;;;16.69
78961;BMP280;68362;45.970;12.646;2023-05-07T00:58:01;101229.38;;;16.71
78961;BMP280;68362;45.970;12.646;2023-05-07T00:59:03;101227.56;;;16.33
78961;BMP280;68362;45.970;12.646;2023-05-07T01:00:06;101234.28;;;16.41
78961;BMP280;68362;45.970;12.646;2023-05-07T01:01:11;101229.66;;;16.31
78961;BMP280;68362;45.970;12.646;2023-05-07T01:02:13;101229.53;;;16.43
78961;BMP280;68362;45.970;12.646;2023-05-07T01:03:15;101228.72;;;16.42
78961;BMP280;68362;45.970;12.646;2023-05-07T01:04:17;101225.91;;;16.49
78961;BMP280;68362;45.970;12.646;2023-05-07T01:05:20;101227.53;;;16.55
78961;BMP280;68362;45.970;12.646;2023-05-07T01:06:25;101227.44;;;16.45
78961;BMP280;68362;45.970;12.646;2023-05-07T01:07:30;101228.44;;;16.39
78961;BMP280;68362;45.970;12.646;2023-05-07T01:08:32;101220.78;;;16.42
78961;BMP280;68362;45.970;12.646;2023-05-07T01:09:35;101231.31;;;16.59
78961;BMP280;68362;45.970;12.646;2023-05-07T01:10:38;101227.31;;;16.56
78961;BMP280;68362;45.970;12.646;2023-05-07T01:11:44;101223.41;;;16.64
78961;BMP280;68362;45.970;12.646;2023-05-07T01:12:47;101226.41;;;16.29
78961;BMP280;68362;45.970;12.646;2023-05-07T01:13:50;101223.13;;;16.39
78961;BMP280;68362;45.970;12.646;2023-05-07T01:14:52;101222.06;;;16.40
78961;BMP280;68362;45.970;12.646;2023-05-07T01:15:54;101221.88;;;16.46
78961;BMP280;68362;45.970;12.646;2023-05-07T01:16:56;101220.66;;;16.54
78961;BMP280;68362;45.970;12.646;2023-05-07T01:17:59;101215.38;;;16.54
78961;BMP280;68362;45.970;12.646;2023-05-07T01:19:01;101216.53;;;16.63
78961;BMP280;68362;45.970;12.646;2023-05-07T01:20:07;101213.94;;;16.68
78961;BMP280;68362;45.970;12.646;2023-05-07T01:21:11;101219.19;;;16.41
78961;BMP280;68362;45.970;12.646;2023-05-07T01:22:14;101221.69;;;16.53
78961;BMP280;68362;45.970;12.646;2023-05-07T01:23:18;101219.94;;;16.37
78961;BMP280;68362;45.970;12.646;2023-05-07T01:24:20;101217.22;;;16.53
78961;BMP280;68362;45.970;12.646;2023-05-07T01:25:23;101219.00;;;16.48
78961;BMP280;68362;45.970;12.646;2023-05-07T01:26:25;101218.38;;;16.41
78961;BMP280;68362;45.970;12.646;2023-05-07T01:27:27;101218.53;;;16.56
78961;BMP280;68362;45.970;12.646;2023-05-07T01:28:29;101218.06;;;16.59
78961;BMP280;68362;45.970;12.646;2023-05-07T01:29:31;101212.81;;;16.64
78961;BMP280;68362;45.970;12.646;2023-05-07T01:30:34;101211.66;;;16.33
78961;BMP280;68362;45.970;12.646;2023-05-07T01:31:37;101210.72;;;16.22
78961;BMP280;68362;45.970;12.646;2023-05-07T01:32:43;101205.88;;;16.36
78961;BMP280;68362;45.970;12.646;2023-05-07T01:33:48;101211.47;;;16.40
78961;BMP280;68362;45.970;12.646;2023-05-07T01:34:52;101210.50;;;16.46
78961;BMP280;68362;45.970;12.646;2023-05-07T01:35:55;101215.66;;;16.35
78961;BMP280;68362;45.970;12.646;2023-05-07T01:36:58;101211.09;;;16.53
78961;BMP280;68362;45.970;12.646;2023-05-07T01:38:02;101216.72;;;16.56
78961;BMP280;68362;45.970;12.646;2023-05-07T01:39:06;101211.94;;;16.53
78961;BMP280;68362;45.970;12.646;2023-05-07T01:40:10;101222.59;;;16.20
78961;BMP280;68362;45.970;12.646;2023-05-07T01:41:13;101211.28;;;16.24
78961;BMP280;68362;45.970;12.646;2023-05-07T01:42:15;101218.25;;;16.30
78961;BMP280;68362;45.970;12.646;2023-05-07T01:43:17;101213.97;;;16.29
78961;BMP280;68362;45.970;12.646;2023-05-07T01:44:19;101217.19;;;16.31
78961;BMP280;68362;45.970;12.646;2023-05-07T01:45:21;101226.06;;;16.42
78961;BMP280;68362;45.970;12.646;2023-05-07T01:46:24;101219.34;;;16.34
78961;BMP280;68362;45.970;12.646;2023-05-07T01:47:27;101219.34;;;16.34
78961;BMP280;68362;45.970;12.646;2023-05-07T01:48:30;101221.03;;;16.24
78961;BMP280;68362;45.970;12.646;2023-05-07T01:49:32;101218.47;;;16.29
78961;BMP280;68362;45.970;12.646;2023-05-07T01:50:34;101219.13;;;16.19
78961;BMP280;68362;45.970;12.646;2023-05-07T01:51:37;101224.06;;;16.27
78961;BMP280;68362;45.970;12.646;2023-05-07T01:52:39;101227.06;;;16.36
78961;BMP280;68362;45.970;12.646;2023-05-07T01:53:41;101221.41;;;16.27
78961;BMP280;68362;45.970;12.646;2023-05-07T01:54:43;101219.34;;;16.34
78961;BMP280;68362;45.970;12.646;2023-05-07T01:55:45;101220.91;;;16.30
78961;BMP280;68362;45.970;12.646;2023-05-07T01:56:47;101223.13;;;16.39
78961;BMP280;68362;45.970;12.646;2023-05-07T01:57:50;101223.88;;;16.17
78961;BMP280;68362;45.970;12.646;2023-05-07T01:58:52;101231.34;;;16.20
78961;BMP280;68362;45.970;12.646;2023-05-07T01:59:55;101221.88;;;16.24
78961;BMP280;68362;45.970;12.646;2023-05-07T02:00:57;101231.13;;;16.22
78961;BMP280;68362;45.970;12.646;2023-05-07T02:01:59;101233.50;;;16.23
78961;BMP280;68362;45.970;12.646;2023-05-07T02:03:01;101232.75;;;16.28
78961;BMP280;68362;45.970;12.646;2023-05-07T02:04:03;101229.72;;;15.81
78961;BMP280;68362;45.970;12.646;2023-05-07T02:05:06;101226.03;;;15.82
78961;BMP280;68362;45.970;12.646;2023-05-07T02:06:08;101231.28;;;15.65
78961;BMP280;68362;45.970;12.646;2023-05-07T02:07:10;101228.75;;;15.87
78961;BMP280;68362;45.970;12.646;2023-05-07T02:08:12;101226.00;;;15.98
78961;BMP280;68362;45.970;12.646;2023-05-07T02:09:14;101229.03;;;16.07
78961;BMP280;68362;45.970;12.646;2023-05-07T02:10:19;101226.16;;;16.09
78961;BMP280;68362;45.970;12.646;2023-05-07T02:11:21;101232.72;;;16.06
78961;BMP280;68362;45.970;12.646;2023-05-07T02:12:23;101221.91;;;16.07
78961;BMP280;68362;45.970;12.646;2023-05-07T02:13:29;101228.56;;;16.10
78961;BMP280;68362;45.970;12.646;2023-05-07T02:14:31;101227.59;;;15.99
78961;BMP280;68362;45.970;12.646;2023-05-07T02:15:33;101231.13;;;15.55
78961;BMP280;68362;45.970;12.646;2023-05-07T02:16:35;101229.22;;;14.93
78961;BMP280;68362;45.970;12.646;2023-05-07T02:17:59;101230.56;;;14.44
78961;BMP280;68362;45.970;12.646;2023-05-07T02:19:01;101237.19;;;14.81
78961;BMP280;68362;45.970;12.646;2023-05-07T02:20:04;101234.00;;;15.08
78961;BMP280;68362;45.970;12.646;2023-05-07T02:21:06;101227.81;;;14.62
78961;BMP280;68362;45.970;12.646;2023-05-07T02:22:10;101235.47;;;14.75
78961;BMP280;68362;45.970;12.646;2023-05-07T02:23:12;101235.31;;;14.93
78961;BMP280;68362;45.970;12.646;2023-05-07T02:24:14;101233.53;;;15.11
78961;BMP280;68362;45.970;12.646;2023-05-07T02:25:16;101227.84;;;15.31
78961;BMP280;68362;45.970;12.646;2023-05-07T02:26:18;101224.28;;;15.42
78961;BMP280;68362;45.970;12.646;2023-05-07T02:27:20;101223.13;;;15.49
78961;BMP280;68362;45.970;12.646;2023-05-07T02:28:22;101217.91;;;15.55
78961;BMP280;68362;45.970;12.646;2023-05-07T02:29:24;101218.25;;;15.58
78961;BMP280;68362;45.970;12.646;2023-05-07T02:30:26;101217.53;;;15.63
78961;BMP280;68362;45.970;12.646;2023-05-07T02:31:28;101217.59;;;15.68
78961;BMP280;68362;45.970;12.646;2023-05-07T02:32:31;101213.03;;;15.63
78961;BMP280;68362;45.970;12.646;2023-05-07T02:33:33;101220.53;;;15.55
78961;BMP280;68362;45.970;12.646;2023-05-07T02:34:36;101217.84;;;15.66
78961;BMP280;68362;45.970;12.646;2023-05-07T02:35:38;101223.75;;;15.40
78961;BMP280;68362;45.970;12.646;2023-05-07T02:36:40;101221.69;;;15.59
78961;BMP280;68362;45.970;12.646;2023-05-07T02:37:43;101213.56;;;15.65
78961;BMP280;68362;45.970;12.646;2023-05-07T02:38:45;101217.44;;;15.58
78961;BMP280;68362;45.970;12.646;2023-05-07T02:39:46;101217.16;;;15.59
78961;BMP280;68362;45.970;12.646;2023-05-07T02:40:49;101211.25;;;15.69
78961;BMP280;68362;45.970;12.646;2023-05-07T02:41:51;101212.84;;;15.70
78961;BMP280;68362;45.970;12.646;2023-05-07T02:42:53;101209.00;;;15.61
78961;BMP280;68362;45.970;12.646;2023-05-07T02:43:55;101206.19;;;15.67
78961;BMP280;68362;45.970;12.646;2023-05-07T02:44:57;101209.31;;;15.64
78961;BMP280;68362;45.970;12.646;2023-05-07T02:46:06;101207.75;;;15.63
78961;BMP280;68362;45.970;12.646;2023-05-07T02:47:09;101209.41;;;15.69
78961;BMP280;68362;45.970;12.646;2023-05-07T02:48:11;101205.94;;;15.52
78961;BMP280;68362;45.970;12.646;2023-05-07T02:49:13;101201.16;;;15.66
78961;BMP280;68362;45.970;12.646;2023-05-07T02:50:15;101204.81;;;15.65
78961;BMP280;68362;45.970;12.646;2023-05-07T02:51:20;101206.44;;;15.66
78961;BMP280;68362;45.970;12.646;2023-05-07T02:52:25;101201.16;;;15.66
78961;BMP280;68362;45.970;12.646;2023-05-07T02:53:28;101208.19;;;15.60
78961;BMP280;68362;45.970;12.646;2023-05-07T02:54:31;101206.00;;;15.23
78961;BMP280;68362;45.970;12.646;2023-05-07T02:55:33;101211.88;;;14.85
78961;BMP280;68362;45.970;12.646;2023-05-07T02:56:35;101208.41;;;14.56
78961;BMP280;68362;45.970;12.646;2023-05-07T02:57:37;101208.22;;;14.23
78961;BMP280;68362;45.970;12.646;2023-05-07T02:58:39;101213.94;;;14.20
78961;BMP280;68362;45.970;12.646;2023-05-07T02:59:42;101213.13;;;14.54
78961;BMP280;68362;45.970;12.646;2023-05-07T03:00:44;101212.00;;;14.79
78961;BMP280;68362;45.970;12.646;2023-05-07T03:01:46;101209.53;;;14.60
78961;BMP280;68362;45.970;12.646;2023-05-07T03:02:49;101210.81;;;14.58
78961;BMP280;68362;45.970;12.646;2023-05-07T03:03:51;101215.53;;;14.44
78961;BMP280;68362;45.970;12.646;2023-05-07T03:04:53;101213.16;;;14.43
78961;BMP280;68362;45.970;12.646;2023-05-07T03:05:55;101205.06;;;14.61
78961;BMP280;68362;45.970;12.646;2023-05-07T03:06:57;101214.28;;;14.47
78961;BMP280;68362;45.970;12.646;2023-05-07T03:07:59;101214.16;;;14.42
78961;BMP280;68362;45.970;12.646;2023-05-07T03:09:01;101217.47;;;14.49
78961;BMP280;68362;45.970;12.646;2023-05-07T03:10:04;101215.63;;;14.73
78961;BMP280;68362;45.970;12.646;2023-05-07T03:11:07;101220.75;;;14.79
78961;BMP280;68362;45.970;12.646;2023-05-07T03:12:09;101214.81;;;15.01
78961;BMP280;68362;45.970;12.646;2023-05-07T03:13:11;101216.59;;;14.95
78961;BMP280;68362;45.970;12.646;2023-05-07T03:14:13;101219.41;;;15.05
78961;BMP280;68362;45.970;12.646;2023-05-07T03:15:15;101216.47;;;14.90
78961;BMP280;68362;45.970;12.646;2023-05-07T03:16:18;101216.19;;;15.03
78961;BMP280;68362;45.970;12.646;2023-05-07T03:17:20;101215.16;;;15.04
78961;BMP280;68362;45.970;12.646;2023-05-07T03:18:22;101211.38;;;15.00
78961;BMP280;68362;45.970;12.646;2023-05-07T03:19:25;101215.25;;;15.09
78961;BMP280;68362;45.970;12.646;2023-05-07T03:20:27;101213.91;;;15.23
78961;BMP280;68362;45.970;12.646;2023-05-07T03:21:29;101209.13;;;15.20
78961;BMP280;68362;45.970;12.646;2023-05-07T03:22:32;101204.03;;;15.31
78961;BMP280;68362;45.970;12.646;2023-05-07T03:23:34;101210.16;;;15.19
78961;BMP280;68362;45.970;12.646;2023-05-07T03:24:36;101202.31;;;15.41
78961;BMP280;68362;45.970;12.646;2023-05-07T03:25:38;101209.31;;;15.47
78961;BMP280;68362;45.970;12.646;2023-05-07T03:26:40;101208.59;;;15.52
78961;BMP280;68362;45.970;12.646;2023-05-07T03:27:42;101210.13;;;15.48
78961;BMP280;68362;45.970;12.646;2023-05-07T03:28:45;101213.88;;;15.35
78961;BMP280;68362;45.970;12.646;2023-05-07T03:29:47;101206.66;;;15.47
78961;BMP280;68362;45.970;12.646;2023-05-07T03:30:49;101206.84;;;15.58
78961;BMP280;68362;45.970;12.646;2023-05-07T03:31:52;101213.50;;;15.60
78961;BMP280;68362;45.970;12.646;2023-05-07T03:32:54;101213.25;;;15.62
78961;BMP280;68362;45.970;12.646;2023-05-07T03:33:57;101214.16;;;15.67
78961;BMP280;68362;45.970;12.646;2023-05-07T03:34:59;101210.34;;;15.46
78961;BMP280;68362;45.970;12.646;2023-05-07T03:36:01;101218.47;;;15.40
78961;BMP280;68362;45.970;12.646;2023-05-07T03:37:03;101210.25;;;15.41
78961;BMP280;68362;45.970;12.646;2023-05-07T03:38:06;101212.19;;;15.46
78961;BMP280;68362;45.970;12.646;2023-05-07T03:39:07;101211.09;;;15.59
78961;BMP280;68362;45.970;12.646;2023-05-07T03:40:10;101210.00;;;15.71
78961;BMP280;68362;45.970;12.646;2023-05-07T03:41:14;101204.59;;;15.49
78961;BMP280;68362;45.970;12.646;2023-05-07T03:42:16;101208.41;;;15.42
78961;BMP280;68362;45.970;12.646;2023-05-07T03:43:18;101209.03;;;15.32
78961;BMP280;68362;45.970;12.646;2023-05-07T03:44:20;101214.44;;;15.37
78961;BMP280;68362;45.970;12.646;2023-05-07T03:45:22;101211.25;;;15.52
78961;BMP280;68362;45.970;12.646;2023-05-07T03:46:24;101215.91;;;15.45
78961;BMP280;68362;45.970;12.646;2023-05-07T03:47:28;101214.38;;;15.49
78961;BMP280;68362;45.970;12.646;2023-05-07T03:48:30;101209.50;;;15.58
78961;BMP280;68362;45.970;12.646;2023-05-07T03:49:32;101208.34;;;15.70
78961;BMP280;68362;45.970;12.646;2023-05-07T03:50:34;101217.66;;;15.73
78961;BMP280;68362;45.970;12.646;2023-05-07T03:51:36;101220.31;;;15.73
78961;BMP280;68362;45.970;12.646;2023-05-07T03:52:38;101213.84;;;15.64
78961;BMP280;68362;45.970;12.646;2023-05-07T03:53:40;101218.00;;;15.76
78961;BMP280;68362;45.970;12.646;2023-05-07T03:54:42;101212.06;;;15.86
78961;BMP280;68362;45.970;12.646;2023-05-07T03:55:44;101215.97;;;15.84
78961;BMP280;68362;45.970;12.646;2023-05-07T03:56:46;101211.25;;;15.69
78961;BMP280;68362;45.970;12.646;2023-05-07T03:57:48;101207.25;;;15.66
78961;BMP280;68362;45.970;12.646;2023-05-07T03:58:50;101216.28;;;15.54
78961;BMP280;68362;45.970;12.646;2023-05-07T03:59:52;101219.69;;;15.66
78961;BMP280;68362;45.970;12.646;2023-05-07T04:00:55;101208.59;;;15.52
78961;BMP280;68362;45.970;12.646;2023-05-07T04:01:57;101213.41;;;15.55
78961;BMP280;68362;45.970;12.646;2023-05-07T04:02:59;101214.31;;;15.61
78961;BMP280;68362;45.970;12.646;2023-05-07T04:04:01;101208.81;;;15.50
78961;BMP280;68362;45.970;12.646;2023-05-07T04:05:05;101212.69;;;15.43
78961;BMP280;68362;45.970;12.646;2023-05-07T04:06:07;101209.66;;;15.51
78961;BMP280;68362;45.970;12.646;2023-05-07T04:07:09;101217.34;;;15.53
78961;BMP280;68362;45.970;12.646;2023-05-07T04:08:11;101215.75;;;15.52
78961;BMP280;68362;45.970;12.646;2023-05-07T04:09:14;101215.22;;;15.38
78961;BMP280;68362;45.970;12.646;2023-05-07T04:10:16;101216.22;;;15.48
78961;BMP280;68362;45.970;12.646;2023-05-07T04:11:17;101215.59;;;15.58
78961;BMP280;68362;45.970;12.646;2023-05-07T04:12:19;101215.44;;;15.48
78961;BMP280;68362;45.970;12.646;2023-05-07T04:13:22;101217.59;;;15.22
78961;BMP280;68362;45.970;12.646;2023-05-07T04:14:24;101218.72;;;15.10
78961;BMP280;68362;45.970;12.646;2023-05-07T04:15:26;101224.91;;;14.87
78961;BMP280;68362;45.970;12.646;2023-05-07T04:16:28;101229.47;;;14.80
78961;BMP280;68362;45.970;12.646;2023-05-07T04:17:30;101229.28;;;14.70
78961;BMP280;68362;45.970;12.646;2023-05-07T04:18:32;101229.53;;;14.56
78961;BMP280;68362;45.970;12.646;2023-05-07T04:19:34;101229.66;;;14.61
78961;BMP280;68362;45.970;12.646;2023-05-07T04:20:36;101229.75;;;14.66
78961;BMP280;68362;45.970;12.646;2023-05-07T04:21:38;101228.34;;;14.76
78961;BMP280;68362;45.970;12.646;2023-05-07T04:22:41;101231.78;;;14.88
78961;BMP280;68362;45.970;12.646;2023-05-07T04:23:43;101225.81;;;15.09
78961;BMP280;68362;45.970;12.646;2023-05-07T04:24:45;101227.84;;;15.31
78961;BMP280;68362;45.970;12.646;2023-05-07T04:25:47;101228.06;;;15.46
78961;BMP280;68362;45.970;12.646;2023-05-07T04:26:49;101230.16;;;15.44
78961;BMP280;68362;45.970;12.646;2023-05-07T04:27:52;101233.84;;;15.43
78961;BMP280;68362;45.970;12.646;2023-05-07T04:28:57;101240.09;;;15.37
78961;BMP280;68362;45.970;12.646;2023-05-07T04:30:02;101244.72;;;15.30
78961;BMP280;68362;45.970;12.646;2023-05-07T04:31:04;101247.00;;;14.98
78961;BMP280;68362;45.970;12.646;2023-05-07T04:32:05;101244.94;;;15.00
78961;BMP280;68362;45.970;12.646;2023-05-07T04:33:07;101241.56;;;14.64
78961;BMP280;68362;45.970;12.646;2023-05-07T04:34:11;101242.41;;;14.29
78961;BMP280;68362;45.970;12.646;2023-05-07T04:35:13;101240.09;;;14.09
78961;BMP280;68362;45.970;12.646;2023-05-07T04:36:15;101239.28;;;13.97
78961;BMP280;68362;45.970;12.646;2023-05-07T04:37:16;101239.75;;;14.06
78961;BMP280;68362;45.970;12.646;2023-05-07T04:38:19;101236.44;;;13.99
78961;BMP280;68362;45.970;12.646;2023-05-07T04:39:21;101239.88;;;14.11
78961;BMP280;68362;45.970;12.646;2023-05-07T04:40:23;101236.00;;;14.14
78961;BMP280;68362;45.970;12.646;2023-05-07T04:41:25;101245.28;;;14.16
78961;BMP280;68362;45.970;12.646;2023-05-07T04:42:27;101240.91;;;14.10
78961;BMP280;68362;45.970;12.646;2023-05-07T04:43:29;101249.50;;;14.05
78961;BMP280;68362;45.970;12.646;2023-05-07T04:44:32;101247.22;;;14.21
78961;BMP280;68362;45.970;12.646;2023-05-07T04:45:35;101255.75;;;14.23
78961;BMP280;68362;45.970;12.646;2023-05-07T04:46:37;101255.03;;;14.51
78961;BMP280;68362;45.970;12.646;2023-05-07T04:47:39;101262.59;;;14.71
78961;BMP280;68362;45.970;12.646;2023-05-07T04:48:42;101254.16;;;14.97
78961;BMP280;68362;45.970;12.646;2023-05-07T04:49:44;101258.91;;;15.12
78961;BMP280;68362;45.970;12.646;2023-05-07T04:50:50;101261.34;;;15.13
78961;BMP280;68362;45.970;12.646;2023-05-07T04:51:52;101261.25;;;15.08
78961;BMP280;68362;45.970;12.646;2023-05-07T04:52:54;101258.16;;;15.11
78961;BMP280;68362;45.970;12.646;2023-05-07T04:53:56;101254.59;;;15.06
78961;BMP280;68362;45.970;12.646;2023-05-07T04:55:01;101270.34;;;15.01
78961;BMP280;68362;45.970;12.646;2023-05-07T04:56:03;101262.09;;;14.97
78961;BMP280;68362;45.970;12.646;2023-05-07T04:57:06;101262.44;;;14.89
78961;BMP280;68362;45.970;12.646;2023-05-07T04:58:08;101257.91;;;14.61
78961;BMP280;68362;45.970;12.646;2023-05-07T04:59:10;101263.78;;;14.51
78961;BMP280;68362;45.970;12.646;2023-05-07T05:00:13;101268.81;;;14.41
78961;BMP280;68362;45.970;12.646;2023-05-07T05:01:18;101260.31;;;14.51
78961;BMP280;68362;45.970;12.646;2023-05-07T05:02:20;101269.88;;;14.40
78961;BMP280;68362;45.970;12.646;2023-05-07T05:03:22;101270.66;;;14.52
78961;BMP280;68362;45.970;12.646;2023-05-07T05:04:24;101268.03;;;14.52
78961;BMP280;68362;45.970;12.646;2023-05-07T05:05:26;101267.22;;;14.63
78961;BMP280;68362;45.970;12.646;2023-05-07T05:06:28;101270.63;;;14.76
78961;BMP280;68362;45.970;12.646;2023-05-07T05:07:31;101269.47;;;14.95
78961;BMP280;68362;45.970;12.646;2023-05-07T05:08:33;101270.03;;;14.97
78961;BMP280;68362;45.970;12.646;2023-05-07T05:09:35;101267.13;;;15.10
78961;BMP280;68362;45.970;12.646;2023-05-07T05:10:37;101272.28;;;15.05
78961;BMP280;68362;45.970;12.646;2023-05-07T05:11:39;101275.56;;;15.24
78961;BMP280;68362;45.970;12.646;2023-05-07T05:12:41;101276.91;;;15.27
78961;BMP280;68362;45.970;12.646;2023-05-07T05:13:43;101276.75;;;15.16
78961;BMP280;68362;45.970;12.646;2023-05-07T05:14:45;101269.19;;;15.37
78961;BMP280;68362;45.970;12.646;2023-05-07T05:15:48;101274.56;;;15.42
78961;BMP280;68362;45.970;12.646;2023-05-07T05:16:50;101270.91;;;15.43
78961;BMP280;68362;45.970;12.646;2023-05-07T05:17:52;101272.00;;;15.47
78961;BMP280;68362;45.970;12.646;2023-05-07T05:18:53;101277.41;;;15.23
78961;BMP280;68362;45.970;12.646;2023-05-07T05:19:56;101282.91;;;15.34
78961;BMP280;68362;45.970;12.646;2023-05-07T05:20:58;101281.69;;;15.25
78961;BMP280;68362;45.970;12.646;2023-05-07T05:22:00;101280.25;;;15.34
78961;BMP280;68362;45.970;12.646;2023-05-07T05:23:05;101278.03;;;15.42
78961;BMP280;68362;45.970;12.646;2023-05-07T05:24:08;101281.34;;;15.66
78961;BMP280;68362;45.970;12.646;2023-05-07T05:25:10;101283.16;;;15.77
78961;BMP280;68362;45.970;12.646;2023-05-07T05:26:12;101281.84;;;15.63
78961;BMP280;68362;45.970;12.646;2023-05-07T05:27:14;101284.59;;;15.68
78961;BMP280;68362;45.970;12.646;2023-05-07T05:28:16;101289.81;;;15.80
78961;BMP280;68362;45.970;12.646;2023-05-07T05:29:18;101278.31;;;15.74
78961;BMP280;68362;45.970;12.646;2023-05-07T05:30:20;101275.13;;;15.89
78961;BMP280;68362;45.970;12.646;2023-05-07T05:31:23;101280.22;;;15.62
78961;BMP280;68362;45.970;12.646;2023-05-07T05:32:26;101272.06;;;15.64
78961;BMP280;68362;45.970;12.646;2023-05-07T05:33:28;101284.72;;;15.78
78961;BMP280;68362;45.970;12.646;2023-05-07T05:34:30;101277.50;;;15.74
78961;BMP280;68362;45.970;12.646;2023-05-07T05:35:32;101275.63;;;15.86
78961;BMP280;68362;45.970;12.646;2023-05-07T05:36:34;101275.66;;;16.08
78961;BMP280;68362;45.970;12.646;2023-05-07T05:37:36;101279.44;;;16.12
78961;BMP280;68362;45.970;12.646;2023-05-07T05:38:39;101274.28;;;16.05
78961;BMP280;68362;45.970;12.646;2023-05-07T05:39:41;101274.38;;;16.27
78961;BMP280;68362;45.970;12.646;2023-05-07T05:40:44;101273.53;;;16.44
78961;BMP280;68362;45.970;12.646;2023-05-07T05:41:46;101266.34;;;16.22
78961;BMP280;68362;45.970;12.646;2023-05-07T05:42:49;101271.41;;;16.07
78961;BMP280;68362;45.970;12.646;2023-05-07T05:43:51;101265.88;;;15.92
78961;BMP280;68362;45.970;12.646;2023-05-07T05:44:53;101262.09;;;15.88
78961;BMP280;68362;45.970;12.646;2023-05-07T05:45:56;101261.31;;;15.87
78961;BMP280;68362;45.970;12.646;2023-05-07T05:46:57;101255.00;;;15.71
78961;BMP280;68362;45.970;12.646;2023-05-07T05:48:00;101259.22;;;15.72
78961;BMP280;68362;45.970;12.646;2023-05-07T05:49:03;101262.81;;;15.49
78961;BMP280;68362;45.970;12.646;2023-05-07T05:50:06;101251.03;;;15.57